sensor_id;sensor_type;location;lat;lon;timestamp;P1;durP1;ratioP1;P2;durP2;ratioP2
7211;SDS011;3647;48.792;9.802;2023-03-22T05:31:17;8.53;;;7.50;;
7211;SDS011;3647;48.792;9.802;2023-03-22T05:33:46;9.10;;;7.50;;
7211;SDS011;3647;48.792;9.802;2023-03-22T05:36:14;7.87;;;6.97;;
7211;SDS011;3647;48.792;9.802;2023-03-22T05:38:43;7.67;;;6.30;;
7211;SDS011;3647;48.792;9.802;2023-03-22T05:41:10;12.00;;;9.53;;
7211;SDS011;3647;48.792;9.802;2023-03-22T05:43:37;9.07;;;7.87;;
7211;SDS011;3647;48.792;9.802;2023-03-22T05:46:05;8.20;;;6.60;;
7211;SDS011;3647;48.792;9.802;2023-03-22T05:48:34;9.60;;;6.97;;
7211;SDS011;3647;48.792;9.802;2023-03-22T05:51:01;7.73;;;6.17;;
7211;SDS011;3647;48.792;9.802;2023-03-22T05:53:31;6.87;;;6.13;;
7211;SDS011;3647;48.792;9.802;2023-03-22T05:55:58;13.13;;;6.83;;
7211;SDS011;3647;48.792;9.802;2023-03-22T05:58:25;7.57;;;6.77;;
7211;SDS011;3647;48.792;9.802;2023-03-22T06:00:54;8.40;;;6.03;;
7211;SDS011;3647;48.792;9.802;2023-03-22T12:34:27;1.58;;;0.80;;
7211;SDS011;3647;48.792;9.802;2023-03-22T12:37:00;1.05;;;0.90;;
7211;SDS011;3647;48.792;9.802;2023-03-22T12:39:30;1.52;;;0.70;;
7211;SDS011;3647;48.792;9.802;2023-03-22T12:42:03;0.80;;;0.80;;
7211;SDS011;3647;48.792;9.802;2023-03-22T12:44:37;1.00;;;0.90;;
7211;SDS011;3647;48.792;9.802;2023-03-22T12:47:08;0.93;;;0.93;;
7211;SDS011;3647;48.792;9.802;2023-03-22T12:49:42;1.67;;;0.90;;
7211;SDS011;3647;48.792;9.802;2023-03-22T12:52:14;0.93;;;0.90;;
7211;SDS011;3647;48.792;9.802;2023-03-22T12:54:46;1.42;;;0.85;;
7211;SDS011;3647;48.792;9.802;2023-03-22T12:57:15;1.10;;;1.00;;
7211;SDS011;3647;48.792;9.802;2023-03-22T12:59:43;0.88;;;0.88;;
7211;SDS011;3647;48.792;9.802;2023-03-22T13:02:14;1.52;;;0.90;;
7211;SDS011;3647;48.792;9.802;2023-03-22T13:04:49;0.80;;;0.80;;
7211;SDS011;3647;48.792;9.802;2023-03-22T13:13:08;1.35;;;0.85;;
7211;SDS011;3647;48.792;9.802;2023-03-22T13:15:37;2.40;;;1.00;;
7211;SDS011;3647;48.792;9.802;2023-03-22T13:21:11;0.70;;;0.70;;
7211;SDS011;3647;48.792;9.802;2023-03-22T13:23:51;0.80;;;0.80;;
7211;SDS011;3647;48.792;9.802;2023-03-22T13:26:21;0.80;;;0.80;;
7211;SDS011;3647;48.792;9.802;2023-03-22T13:28:53;0.80;;;0.80;;
7211;SDS011;3647;48.792;9.802;2023-03-22T13:31:29;1.88;;;1.00;;
7211;SDS011;3647;48.792;9.802;2023-03-22T13:34:01;1.15;;;0.90;;
7211;SDS011;3647;48.792;9.802;2023-03-22T13:36:30;0.70;;;0.70;;
7211;SDS011;3647;48.792;9.802;2023-03-22T13:38:58;1.98;;;0.88;;
7211;SDS011;3647;48.792;9.802;2023-03-22T13:41:27;0.70;;;0.70;;
7211;SDS011;3647;48.792;9.802;2023-03-22T13:43:56;0.90;;;0.88;;
7211;SDS011;3647;48.792;9.802;2023-03-22T13:46:28;1.95;;;1.02;;
7211;SDS011;3647;48.792;9.802;2023-03-22T13:49:16;0.70;;;0.70;;
7211;SDS011;3647;48.792;9.802;2023-03-22T13:52:04;0.85;;;0.82;;
7211;SDS011;3647;48.792;9.802;2023-03-22T13:54:34;0.80;;;0.80;;
7211;SDS011;3647;48.792;9.802;2023-03-22T13:57:13;0.80;;;0.80;;
7211;SDS011;3647;48.792;9.802;2023-03-22T13:59:57;1.83;;;1.17;;
7211;SDS011;3647;48.792;9.802;2023-03-22T14:02:26;1.27;;;0.90;;
7211;SDS011;3647;48.792;9.802;2023-03-22T14:05:00;0.82;;;0.82;;
7211;SDS011;3647;48.792;9.802;2023-03-22T14:07:36;0.70;;;0.70;;
7211;SDS011;3647;48.792;9.802;2023-03-22T14:10:11;1.42;;;1.10;;
7211;SDS011;3647;48.792;9.802;2023-03-22T14:12:44;1.00;;;0.90;;
7211;SDS011;3647;48.792;9.802;2023-03-22T14:15:17;2.53;;;1.10;;
7211;SDS011;3647;48.792;9.802;2023-03-22T14:17:45;0.98;;;0.88;;
7211;SDS011;3647;48.792;9.802;2023-03-22T14:20:18;1.98;;;0.80;;
7211;SDS011;3647;48.792;9.802;2023-03-22T14:22:49;0.80;;;0.80;;
7211;SDS011;3647;48.792;9.802;2023-03-22T14:25:21;0.90;;;0.90;;
7211;SDS011;3647;48.792;9.802;2023-03-22T14:27:51;1.00;;;0.90;;
7211;SDS011;3647;48.792;9.802;2023-03-22T14:30:26;1.10;;;1.00;;
7211;SDS011;3647;48.792;9.802;2023-03-22T14:32:54;0.73;;;0.73;;
7211;SDS011;3647;48.792;9.802;2023-03-22T14:35:25;1.33;;;0.70;;
7211;SDS011;3647;48.792;9.802;2023-03-22T14:38:00;1.48;;;1.10;;
7211;SDS011;3647;48.792;9.802;2023-03-22T14:40:29;1.25;;;0.93;;
7211;SDS011;3647;48.792;9.802;2023-03-22T14:43:10;1.55;;;0.88;;
7211;SDS011;3647;48.792;9.802;2023-03-22T14:45:39;1.10;;;1.00;;
7211;SDS011;3647;48.792;9.802;2023-03-22T14:48:11;1.00;;;0.80;;
7211;SDS011;3647;48.792;9.802;2023-03-22T14:50:43;1.00;;;0.82;;
7211;SDS011;3647;48.792;9.802;2023-03-22T14:53:12;0.90;;;0.90;;
7211;SDS011;3647;48.792;9.802;2023-03-22T14:55:40;1.13;;;1.13;;
7211;SDS011;3647;48.792;9.802;2023-03-22T14:58:11;2.50;;;0.80;;
7211;SDS011;3647;48.792;9.802;2023-03-22T15:00:40;1.08;;;0.98;;
7211;SDS011;3647;48.792;9.802;2023-03-22T15:03:08;1.40;;;1.08;;
7211;SDS011;3647;48.792;9.802;2023-03-22T15:05:40;2.45;;;0.82;;
7211;SDS011;3647;48.792;9.802;2023-03-22T15:08:09;1.55;;;0.90;;
7211;SDS011;3647;48.792;9.802;2023-03-22T15:10:46;1.65;;;1.00;;
7211;SDS011;3647;48.792;9.802;2023-03-22T15:13:15;1.77;;;1.00;;
7211;SDS011;3647;48.792;9.802;2023-03-22T15:15:43;0.90;;;0.90;;
7211;SDS011;3647;48.792;9.802;2023-03-22T15:18:11;1.00;;;0.90;;
7211;SDS011;3647;48.792;9.802;2023-03-22T15:20:39;1.75;;;0.80;;
7211;SDS011;3647;48.792;9.802;2023-03-22T15:23:08;2.33;;;1.27;;
7211;SDS011;3647;48.792;9.802;2023-03-22T15:25:43;2.58;;;1.05;;
7211;SDS011;3647;48.792;9.802;2023-03-22T15:28:12;1.98;;;1.10;;
7211;SDS011;3647;48.792;9.802;2023-03-22T15:30:45;1.45;;;1.00;;
7211;SDS011;3647;48.792;9.802;2023-03-22T15:33:17;3.70;;;0.80;;
7211;SDS011;3647;48.792;9.802;2023-03-22T15:35:46;0.82;;;0.82;;
7211;SDS011;3647;48.792;9.802;2023-03-22T15:38:16;1.10;;;1.00;;
7211;SDS011;3647;48.792;9.802;2023-03-22T15:40:51;0.80;;;0.80;;
7211;SDS011;3647;48.792;9.802;2023-03-22T15:43:19;0.85;;;0.75;;
7211;SDS011;3647;48.792;9.802;2023-03-22T15:46:11;0.80;;;0.80;;
7211;SDS011;3647;48.792;9.802;2023-03-22T15:48:45;1.00;;;1.00;;
7211;SDS011;3647;48.792;9.802;2023-03-22T15:51:13;0.85;;;0.85;;
7211;SDS011;3647;48.792;9.802;2023-03-22T15:53:44;0.80;;;0.80;;
7211;SDS011;3647;48.792;9.802;2023-03-22T15:56:22;2.55;;;0.70;;
7211;SDS011;3647;48.792;9.802;2023-03-22T15:58:52;1.05;;;0.95;;
7211;SDS011;3647;48.792;9.802;2023-03-22T16:01:21;2.90;;;1.10;;
7211;SDS011;3647;48.792;9.802;2023-03-22T16:03:50;1.20;;;0.80;;
7211;SDS011;3647;48.792;9.802;2023-03-22T16:06:23;1.70;;;1.10;;
7211;SDS011;3647;48.792;9.802;2023-03-22T16:08:53;0.80;;;0.80;;
7211;SDS011;3647;48.792;9.802;2023-03-22T16:11:21;1.02;;;0.90;;
7211;SDS011;3647;48.792;9.802;2023-03-22T16:13:50;2.42;;;1.13;;
7211;SDS011;3647;48.792;9.802;2023-03-22T16:16:18;1.05;;;1.05;;
7211;SDS011;3647;48.792;9.802;2023-03-22T16:18:47;1.15;;;0.90;;
7211;SDS011;3647;48.792;9.802;2023-03-22T16:21:14;0.85;;;0.85;;
7211;SDS011;3647;48.792;9.802;2023-03-22T16:23:43;1.00;;;0.90;;
7211;SDS011;3647;48.792;9.802;2023-03-22T16:26:13;1.17;;;1.08;;
7211;SDS011;3647;48.792;9.802;2023-03-22T16:28:41;1.42;;;0.90;;
7211;SDS011;3647;48.792;9.802;2023-03-22T16:31:10;1.10;;;1.00;;
7211;SDS011;3647;48.792;9.802;2023-03-22T16:33:42;1.13;;;0.98;;
7211;SDS011;3647;48.792;9.802;2023-03-22T16:36:11;1.30;;;1.00;;
7211;SDS011;3647;48.792;9.802;2023-03-22T16:38:39;1.23;;;1.15;;
7211;SDS011;3647;48.792;9.802;2023-03-22T16:41:07;2.28;;;1.00;;
7211;SDS011;3647;48.792;9.802;2023-03-22T16:43:42;0.95;;;0.90;;
7211;SDS011;3647;48.792;9.802;2023-03-22T16:46:10;0.98;;;0.98;;
7211;SDS011;3647;48.792;9.802;2023-03-22T16:48:37;2.05;;;1.00;;
7211;SDS011;3647;48.792;9.802;2023-03-22T16:51:05;2.45;;;1.00;;
7211;SDS011;3647;48.792;9.802;2023-03-22T16:53:36;1.10;;;1.00;;
7211;SDS011;3647;48.792;9.802;2023-03-22T16:56:03;1.00;;;1.00;;
7211;SDS011;3647;48.792;9.802;2023-03-22T16:58:31;2.47;;;1.10;;
7211;SDS011;3647;48.792;9.802;2023-03-22T17:00:59;0.90;;;0.90;;
7211;SDS011;3647;48.792;9.802;2023-03-22T17:03:26;2.05;;;1.10;;
7211;SDS011;3647;48.792;9.802;2023-03-22T17:05:52;0.93;;;0.90;;
7211;SDS011;3647;48.792;9.802;2023-03-22T17:08:19;1.58;;;1.10;;
7211;SDS011;3647;48.792;9.802;2023-03-22T17:10:46;3.33;;;1.33;;
7211;SDS011;3647;48.792;9.802;2023-03-22T17:13:13;2.05;;;1.10;;
7211;SDS011;3647;48.792;9.802;2023-03-22T17:15:41;1.20;;;1.10;;
7211;SDS011;3647;48.792;9.802;2023-03-22T17:18:11;1.20;;;1.10;;
7211;SDS011;3647;48.792;9.802;2023-03-22T17:20:38;1.20;;;1.10;;
7211;SDS011;3647;48.792;9.802;2023-03-22T17:23:08;1.52;;;1.23;;
7211;SDS011;3647;48.792;9.802;2023-03-22T17:25:37;1.50;;;1.40;;
7211;SDS011;3647;48.792;9.802;2023-03-22T17:28:06;1.30;;;1.20;;
7211;SDS011;3647;48.792;9.802;2023-03-22T17:30:35;1.50;;;1.40;;
7211;SDS011;3647;48.792;9.802;2023-03-22T17:33:03;1.73;;;1.08;;
7211;SDS011;3647;48.792;9.802;2023-03-22T17:35:31;1.23;;;1.13;;
7211;SDS011;3647;48.792;9.802;2023-03-22T17:37:58;2.30;;;1.30;;
7211;SDS011;3647;48.792;9.802;2023-03-22T17:40:26;1.02;;;1.02;;
7211;SDS011;3647;48.792;9.802;2023-03-22T17:42:55;2.83;;;1.40;;
7211;SDS011;3647;48.792;9.802;2023-03-22T17:45:23;1.05;;;1.02;;
7211;SDS011;3647;48.792;9.802;2023-03-22T17:47:51;2.17;;;1.00;;
7211;SDS011;3647;48.792;9.802;2023-03-22T17:50:18;1.30;;;1.20;;
7211;SDS011;3647;48.792;9.802;2023-03-22T17:52:47;2.10;;;1.35;;
7211;SDS011;3647;48.792;9.802;2023-03-22T17:55:14;1.38;;;1.27;;
7211;SDS011;3647;48.792;9.802;2023-03-22T17:57:43;1.30;;;1.20;;
7211;SDS011;3647;48.792;9.802;2023-03-22T18:00:10;3.22;;;1.77;;
7211;SDS011;3647;48.792;9.802;2023-03-22T18:02:38;2.58;;;1.45;;
7211;SDS011;3647;48.792;9.802;2023-03-22T18:05:06;1.65;;;1.55;;
7211;SDS011;3647;48.792;9.802;2023-03-22T18:07:33;1.50;;;1.40;;
7211;SDS011;3647;48.792;9.802;2023-03-22T18:10:01;2.47;;;1.77;;
7211;SDS011;3647;48.792;9.802;2023-03-22T18:12:31;2.78;;;1.80;;
7211;SDS011;3647;48.792;9.802;2023-03-22T18:14:59;3.23;;;1.57;;
7211;SDS011;3647;48.792;9.802;2023-03-22T18:17:26;2.38;;;1.75;;
7211;SDS011;3647;48.792;9.802;2023-03-22T18:19:53;2.63;;;1.97;;
7211;SDS011;3647;48.792;9.802;2023-03-22T18:22:20;2.40;;;2.20;;
7211;SDS011;3647;48.792;9.802;2023-03-22T18:24:47;4.97;;;2.40;;
7211;SDS011;3647;48.792;9.802;2023-03-22T18:27:15;4.23;;;3.03;;
7211;SDS011;3647;48.792;9.802;2023-03-22T18:29:42;5.53;;;3.10;;
7211;SDS011;3647;48.792;9.802;2023-03-22T18:32:10;5.30;;;3.50;;
7211;SDS011;3647;48.792;9.802;2023-03-22T18:34:37;5.93;;;2.33;;
7211;SDS011;3647;48.792;9.802;2023-03-22T18:37:04;3.17;;;2.37;;
7211;SDS011;3647;48.792;9.802;2023-03-22T18:39:34;4.23;;;2.57;;
7211;SDS011;3647;48.792;9.802;2023-03-22T18:42:00;3.60;;;2.50;;
7211;SDS011;3647;48.792;9.802;2023-03-22T18:44:28;3.83;;;3.00;;
7211;SDS011;3647;48.792;9.802;2023-03-22T18:46:55;3.77;;;3.10;;
7211;SDS011;3647;48.792;9.802;2023-03-22T18:49:22;4.07;;;3.20;;
7211;SDS011;3647;48.792;9.802;2023-03-22T18:51:50;3.00;;;2.70;;
7211;SDS011;3647;48.792;9.802;2023-03-22T18:54:17;3.23;;;2.93;;
7211;SDS011;3647;48.792;9.802;2023-03-22T18:56:44;4.57;;;3.53;;
7211;SDS011;3647;48.792;9.802;2023-03-22T19:01:40;4.07;;;2.97;;
7211;SDS011;3647;48.792;9.802;2023-03-22T19:04:07;3.80;;;2.97;;
7211;SDS011;3647;48.792;9.802;2023-03-22T19:06:37;3.87;;;3.13;;
7211;SDS011;3647;48.792;9.802;2023-03-22T19:09:06;5.83;;;3.50;;
7211;SDS011;3647;48.792;9.802;2023-03-22T19:11:33;6.83;;;3.40;;
7211;SDS011;3647;48.792;9.802;2023-03-22T19:14:00;5.07;;;4.13;;
7211;SDS011;3647;48.792;9.802;2023-03-22T19:16:27;7.30;;;4.13;;
7211;SDS011;3647;48.792;9.802;2023-03-22T19:18:56;4.90;;;3.37;;
7211;SDS011;3647;48.792;9.802;2023-03-22T19:21:23;4.17;;;2.87;;
7211;SDS011;3647;48.792;9.802;2023-03-22T19:23:49;3.27;;;2.83;;
7211;SDS011;3647;48.792;9.802;2023-03-22T19:26:16;4.47;;;3.30;;
7211;SDS011;3647;48.792;9.802;2023-03-22T19:28:43;4.07;;;3.23;;
7211;SDS011;3647;48.792;9.802;2023-03-22T19:31:10;3.80;;;3.37;;
7211;SDS011;3647;48.792;9.802;2023-03-22T19:33:37;19.13;;;10.73;;
7211;SDS011;3647;48.792;9.802;2023-03-22T19:36:05;28.93;;;14.27;;
7211;SDS011;3647;48.792;9.802;2023-03-22T19:38:32;17.23;;;10.33;;
7211;SDS011;3647;48.792;9.802;2023-03-22T19:41:00;17.93;;;9.53;;
7211;SDS011;3647;48.792;9.802;2023-03-22T19:43:32;9.03;;;6.10;;
7211;SDS011;3647;48.792;9.802;2023-03-22T19:45:59;5.13;;;3.70;;
7211;SDS011;3647;48.792;9.802;2023-03-22T19:48:26;6.37;;;4.63;;
7211;SDS011;3647;48.792;9.802;2023-03-22T19:50:53;7.90;;;4.50;;
7211;SDS011;3647;48.792;9.802;2023-03-22T19:53:21;6.80;;;4.23;;
7211;SDS011;3647;48.792;9.802;2023-03-22T19:55:48;3.87;;;3.40;;
7211;SDS011;3647;48.792;9.802;2023-03-22T19:58:15;6.33;;;3.90;;
7211;SDS011;3647;48.792;9.802;2023-03-22T20:00:42;10.63;;;5.10;;
7211;SDS011;3647;48.792;9.802;2023-03-22T20:03:09;14.83;;;7.57;;
7211;SDS011;3647;48.792;9.802;2023-03-22T20:05:38;10.80;;;6.87;;
7211;SDS011;3647;48.792;9.802;2023-03-22T20:08:05;8.23;;;6.50;;
7211;SDS011;3647;48.792;9.802;2023-03-22T20:10:33;7.53;;;5.27;;
7211;SDS011;3647;48.792;9.802;2023-03-22T20:13:00;7.67;;;5.93;;
7211;SDS011;3647;48.792;9.802;2023-03-22T20:15:27;8.77;;;6.33;;
7211;SDS011;3647;48.792;9.802;2023-03-22T20:17:54;7.73;;;5.60;;
7211;SDS011;3647;48.792;9.802;2023-03-22T20:20:21;6.57;;;4.90;;
7211;SDS011;3647;48.792;9.802;2023-03-22T20:22:48;7.60;;;5.03;;
7211;SDS011;3647;48.792;9.802;2023-03-22T20:25:15;8.33;;;5.57;;
7211;SDS011;3647;48.792;9.802;2023-03-22T20:27:44;7.50;;;5.50;;
7211;SDS011;3647;48.792;9.802;2023-03-22T20:30:13;8.33;;;6.03;;
7211;SDS011;3647;48.792;9.802;2023-03-22T20:32:41;8.10;;;5.03;;
7211;SDS011;3647;48.792;9.802;2023-03-22T20:35:08;5.30;;;4.47;;
7211;SDS011;3647;48.792;9.802;2023-03-22T20:37:36;9.27;;;4.93;;
7211;SDS011;3647;48.792;9.802;2023-03-22T20:40:03;8.73;;;5.03;;
7211;SDS011;3647;48.792;9.802;2023-03-22T20:42:31;9.10;;;5.20;;
7211;SDS011;3647;48.792;9.802;2023-03-22T20:45:00;9.37;;;4.63;;
7211;SDS011;3647;48.792;9.802;2023-03-22T20:47:27;6.43;;;4.63;;
7211;SDS011;3647;48.792;9.802;2023-03-22T20:49:54;7.67;;;5.00;;
7211;SDS011;3647;48.792;9.802;2023-03-22T20:52:21;5.63;;;4.60;;
7211;SDS011;3647;48.792;9.802;2023-03-22T20:54:48;6.67;;;4.60;;
7211;SDS011;3647;48.792;9.802;2023-03-22T20:57:15;9.10;;;4.73;;
7211;SDS011;3647;48.792;9.802;2023-03-22T20:59:42;5.57;;;4.90;;
7211;SDS011;3647;48.792;9.802;2023-03-22T21:02:11;9.13;;;5.47;;
7211;SDS011;3647;48.792;9.802;2023-03-22T21:04:38;8.03;;;4.93;;
7211;SDS011;3647;48.792;9.802;2023-03-22T21:07:05;7.60;;;5.67;;
7211;SDS011;3647;48.792;9.802;2023-03-22T21:09:32;7.57;;;4.90;;
7211;SDS011;3647;48.792;9.802;2023-03-22T21:12:01;6.40;;;5.23;;
7211;SDS011;3647;48.792;9.802;2023-03-22T21:14:28;10.10;;;6.63;;
7211;SDS011;3647;48.792;9.802;2023-03-22T21:16:54;9.30;;;6.50;;
7211;SDS011;3647;48.792;9.802;2023-03-22T21:19:23;10.03;;;7.03;;
7211;SDS011;3647;48.792;9.802;2023-03-22T21:21:50;10.03;;;6.47;;
7211;SDS011;3647;48.792;9.802;2023-03-22T21:24:17;9.90;;;6.97;;
7211;SDS011;3647;48.792;9.802;2023-03-22T21:26:44;9.47;;;6.87;;
7211;SDS011;3647;48.792;9.802;2023-03-22T21:29:11;13.93;;;6.13;;
7211;SDS011;3647;48.792;9.802;2023-03-22T21:31:38;9.47;;;6.10;;
7211;SDS011;3647;48.792;9.802;2023-03-22T21:34:06;10.33;;;6.40;;
7211;SDS011;3647;48.792;9.802;2023-03-22T21:36:35;7.33;;;5.33;;
7211;SDS011;3647;48.792;9.802;2023-03-22T21:39:02;8.53;;;5.30;;
7211;SDS011;3647;48.792;9.802;2023-03-22T21:41:32;7.23;;;4.70;;
7211;SDS011;3647;48.792;9.802;2023-03-22T21:44:00;8.90;;;5.97;;
7211;SDS011;3647;48.792;9.802;2023-03-22T21:46:32;9.03;;;6.00;;
7211;SDS011;3647;48.792;9.802;2023-03-22T21:49:02;9.53;;;6.30;;
7211;SDS011;3647;48.792;9.802;2023-03-22T21:51:29;9.00;;;5.90;;
7211;SDS011;3647;48.792;9.802;2023-03-22T21:53:58;7.80;;;5.70;;
7211;SDS011;3647;48.792;9.802;2023-03-22T21:56:26;13.40;;;6.10;;
7211;SDS011;3647;48.792;9.802;2023-03-22T21:58:53;12.83;;;7.37;;
7211;SDS011;3647;48.792;9.802;2023-03-22T22:01:20;12.27;;;5.63;;
7211;SDS011;3647;48.792;9.802;2023-03-22T22:03:47;6.77;;;5.70;;
7211;SDS011;3647;48.792;9.802;2023-03-22T22:06:15;9.00;;;6.27;;
7211;SDS011;3647;48.792;9.802;2023-03-22T22:08:42;8.30;;;5.33;;
7211;SDS011;3647;48.792;9.802;2023-03-22T22:11:11;11.73;;;6.10;;
7211;SDS011;3647;48.792;9.802;2023-03-22T22:13:37;7.47;;;5.40;;
7211;SDS011;3647;48.792;9.802;2023-03-22T22:16:05;7.73;;;5.10;;
7211;SDS011;3647;48.792;9.802;2023-03-22T22:18:35;9.57;;;5.37;;
7211;SDS011;3647;48.792;9.802;2023-03-22T22:21:03;8.03;;;4.77;;
7211;SDS011;3647;48.792;9.802;2023-03-22T22:23:33;6.80;;;5.00;;
7211;SDS011;3647;48.792;9.802;2023-03-22T22:26:03;8.10;;;5.67;;
7211;SDS011;3647;48.792;9.802;2023-03-22T22:28:34;6.47;;;5.20;;
7211;SDS011;3647;48.792;9.802;2023-03-22T22:31:05;11.07;;;6.07;;
7211;SDS011;3647;48.792;9.802;2023-03-22T22:33:33;8.60;;;5.60;;
7211;SDS011;3647;48.792;9.802;2023-03-22T22:36:01;8.87;;;5.70;;
7211;SDS011;3647;48.792;9.802;2023-03-22T22:38:28;9.33;;;5.73;;
7211;SDS011;3647;48.792;9.802;2023-03-22T22:40:55;9.43;;;5.03;;
7211;SDS011;3647;48.792;9.802;2023-03-22T22:43:22;7.87;;;5.20;;
7211;SDS011;3647;48.792;9.802;2023-03-22T22:45:50;11.63;;;5.50;;
7211;SDS011;3647;48.792;9.802;2023-03-22T22:48:17;5.40;;;4.87;;
7211;SDS011;3647;48.792;9.802;2023-03-22T22:50:43;9.67;;;5.27;;
7211;SDS011;3647;48.792;9.802;2023-03-22T22:53:10;7.97;;;6.20;;
7211;SDS011;3647;48.792;9.802;2023-03-22T22:55:37;8.97;;;4.90;;
7211;SDS011;3647;48.792;9.802;2023-03-22T22:58:04;7.23;;;4.70;;
7211;SDS011;3647;48.792;9.802;2023-03-22T23:00:30;9.57;;;5.90;;
7211;SDS011;3647;48.792;9.802;2023-03-22T23:02:59;8.93;;;5.93;;
7211;SDS011;3647;48.792;9.802;2023-03-22T23:05:26;7.23;;;5.63;;
7211;SDS011;3647;48.792;9.802;2023-03-22T23:07:53;7.33;;;6.53;;
